sensor_id;sensor_type;location;lat;lon;timestamp;temperature;humidity
63317;DHT22;49822;41.468;13.560;2023-02-14T00:00:00;4.40;69.80
63317;DHT22;49822;41.468;13.560;2023-02-14T00:02:34;4.00;72.50
63317;DHT22;49822;41.468;13.560;2023-02-14T00:05:02;4.10;73.10
63317;DHT22;49822;41.468;13.560;2023-02-14T00:07:30;4.30;72.20
63317;DHT22;49822;41.468;13.560;2023-02-14T00:09:58;4.00;72.50
63317;DHT22;49822;41.468;13.560;2023-02-14T00:12:27;4.00;73.10
63317;DHT22;49822;41.468;13.560;2023-02-14T00:14:56;4.10;72.90
63317;DHT22;49822;41.468;13.560;2023-02-14T00:17:43;4.40;72.60
63317;DHT22;49822;41.468;13.560;2023-02-14T00:20:12;4.60;70.60
63317;DHT22;49822;41.468;13.560;2023-02-14T00:22:40;4.20;71.50
63317;DHT22;49822;41.468;13.560;2023-02-14T00:25:09;4.00;73.40
63317;DHT22;49822;41.468;13.560;2023-02-14T00:27:36;3.90;73.90
63317;DHT22;49822;41.468;13.560;2023-02-14T00:30:06;4.00;73.70
63317;DHT22;49822;41.468;13.560;2023-02-14T00:32:41;4.30;73.20
63317;DHT22;49822;41.468;13.560;2023-02-14T00:35:09;4.40;72.30
63317;DHT22;49822;41.468;13.560;2023-02-14T00:37:40;4.50;72.30
63317;DHT22;49822;41.468;13.560;2023-02-14T00:40:08;3.90;70.60
63317;DHT22;49822;41.468;13.560;2023-02-14T00:42:39;3.60;74.70
63317;DHT22;49822;41.468;13.560;2023-02-14T00:45:06;3.80;74.80
63317;DHT22;49822;41.468;13.560;2023-02-14T00:47:34;3.80;74.70
63317;DHT22;49822;41.468;13.560;2023-02-14T00:50:02;3.70;73.90
63317;DHT22;49822;41.468;13.560;2023-02-14T00:52:35;3.60;75.30
63317;DHT22;49822;41.468;13.560;2023-02-14T00:55:05;3.80;74.80
63317;DHT22;49822;41.468;13.560;2023-02-14T00:57:33;3.90;75.10
63317;DHT22;49822;41.468;13.560;2023-02-14T01:00:04;3.80;74.10
63317;DHT22;49822;41.468;13.560;2023-02-14T01:02:32;3.90;74.80
63317;DHT22;49822;41.468;13.560;2023-02-14T01:04:59;3.50;75.00
63317;DHT22;49822;41.468;13.560;2023-02-14T01:07:27;3.70;75.90
63317;DHT22;49822;41.468;13.560;2023-02-14T01:09:55;3.90;75.10
63317;DHT22;49822;41.468;13.560;2023-02-14T01:12:23;3.90;73.50
63317;DHT22;49822;41.468;13.560;2023-02-14T01:14:50;4.00;73.80
63317;DHT22;49822;41.468;13.560;2023-02-14T01:17:18;3.90;72.50
63317;DHT22;49822;41.468;13.560;2023-02-14T01:19:46;3.40;74.80
63317;DHT22;49822;41.468;13.560;2023-02-14T01:22:14;3.50;76.50
63317;DHT22;49822;41.468;13.560;2023-02-14T01:24:43;3.70;76.50
63317;DHT22;49822;41.468;13.560;2023-02-14T01:27:11;3.70;75.80
63317;DHT22;49822;41.468;13.560;2023-02-14T01:29:39;3.60;76.90
63317;DHT22;49822;41.468;13.560;2023-02-14T01:32:07;3.70;76.20
63317;DHT22;49822;41.468;13.560;2023-02-14T01:34:35;3.50;75.40
63317;DHT22;49822;41.468;13.560;2023-02-14T01:37:05;3.50;76.70
63317;DHT22;49822;41.468;13.560;2023-02-14T01:39:34;3.70;76.50
63317;DHT22;49822;41.468;13.560;2023-02-14T01:42:02;3.80;75.50
63317;DHT22;49822;41.468;13.560;2023-02-14T01:47:01;4.10;74.50
63317;DHT22;49822;41.468;13.560;2023-02-14T01:50:25;4.30;73.80
63317;DHT22;49822;41.468;13.560;2023-02-14T01:52:39;4.00;72.00
63317;DHT22;49822;41.468;13.560;2023-02-14T01:55:20;3.70;72.70
63317;DHT22;49822;41.468;13.560;2023-02-14T01:57:50;3.70;74.30
63317;DHT22;49822;41.468;13.560;2023-02-14T02:00:22;3.90;74.30
63317;DHT22;49822;41.468;13.560;2023-02-14T02:03:37;4.00;73.90
63317;DHT22;49822;41.468;13.560;2023-02-14T02:06:17;4.20;73.00
63317;DHT22;49822;41.468;13.560;2023-02-14T02:08:54;4.20;72.10
63317;DHT22;49822;41.468;13.560;2023-02-14T02:11:26;4.10;71.30
63317;DHT22;49822;41.468;13.560;2023-02-14T02:13:54;3.90;72.90
63317;DHT22;49822;41.468;13.560;2023-02-14T02:28:10;3.10;73.20
63317;DHT22;49822;41.468;13.560;2023-02-14T02:31:06;3.20;73.90
63317;DHT22;49822;41.468;13.560;2023-02-14T02:37:03;3.50;73.10
63317;DHT22;49822;41.468;13.560;2023-02-14T02:39:55;3.70;72.80
63317;DHT22;49822;41.468;13.560;2023-02-14T02:42:38;3.70;72.20
63317;DHT22;49822;41.468;13.560;2023-02-14T02:45:23;3.90;71.60
63317;DHT22;49822;41.468;13.560;2023-02-14T02:48:27;3.70;71.10
63317;DHT22;49822;41.468;13.560;2023-02-14T02:51:02;2.50;74.70
63317;DHT22;49822;41.468;13.560;2023-02-14T02:53:55;2.50;77.00
63317;DHT22;49822;41.468;13.560;2023-02-14T02:56:31;2.90;77.20
63317;DHT22;49822;41.468;13.560;2023-02-14T02:59:32;3.10;76.10
63317;DHT22;49822;41.468;13.560;2023-02-14T03:04:37;3.10;74.30
63317;DHT22;49822;41.468;13.560;2023-02-14T03:07:34;3.10;73.80
63317;DHT22;49822;41.468;13.560;2023-02-14T03:18:08;2.50;77.70
63317;DHT22;49822;41.468;13.560;2023-02-14T03:24:12;3.10;77.30
63317;DHT22;49822;41.468;13.560;2023-02-14T03:26:48;3.10;75.00
63317;DHT22;49822;41.468;13.560;2023-02-14T03:34:54;3.20;72.90
63317;DHT22;49822;41.468;13.560;2023-02-14T03:37:33;2.50;74.00
63317;DHT22;49822;41.468;13.560;2023-02-14T03:42:42;2.20;79.30
63317;DHT22;49822;41.468;13.560;2023-02-14T03:45:31;2.40;79.00
63317;DHT22;49822;41.468;13.560;2023-02-14T03:48:07;2.70;77.80
63317;DHT22;49822;41.468;13.560;2023-02-14T03:50:37;2.70;75.60
63317;DHT22;49822;41.468;13.560;2023-02-14T03:53:08;2.20;74.30
63317;DHT22;49822;41.468;13.560;2023-02-14T03:55:52;1.90;77.50
63317;DHT22;49822;41.468;13.560;2023-02-14T03:58:27;2.10;79.00
63317;DHT22;49822;41.468;13.560;2023-02-14T04:01:05;2.20;79.30
63317;DHT22;49822;41.468;13.560;2023-02-14T04:03:38;2.50;79.10
63317;DHT22;49822;41.468;13.560;2023-02-14T04:06:07;2.50;77.40
63317;DHT22;49822;41.468;13.560;2023-02-14T04:08:36;2.20;76.00
63317;DHT22;49822;41.468;13.560;2023-02-14T04:11:04;2.30;77.30
63317;DHT22;49822;41.468;13.560;2023-02-14T04:13:34;2.40;77.20
63317;DHT22;49822;41.468;13.560;2023-02-14T04:16:03;2.60;76.60
63317;DHT22;49822;41.468;13.560;2023-02-14T04:18:31;2.50;75.50
63317;DHT22;49822;41.468;13.560;2023-02-14T04:21:17;2.50;77.00
63317;DHT22;49822;41.468;13.560;2023-02-14T04:23:45;2.70;76.90
63317;DHT22;49822;41.468;13.560;2023-02-14T04:26:12;2.80;76.30
63317;DHT22;49822;41.468;13.560;2023-02-14T04:28:39;2.90;75.60
63317;DHT22;49822;41.468;13.560;2023-02-14T04:31:07;2.50;73.60
63317;DHT22;49822;41.468;13.560;2023-02-14T04:33:38;1.90;76.90
63317;DHT22;49822;41.468;13.560;2023-02-14T04:36:05;2.00;80.00
63317;DHT22;49822;41.468;13.560;2023-02-14T04:38:34;2.20;80.30
63317;DHT22;49822;41.468;13.560;2023-02-14T04:41:02;2.40;79.00
63317;DHT22;49822;41.468;13.560;2023-02-14T04:43:29;2.40;76.70
63317;DHT22;49822;41.468;13.560;2023-02-14T04:45:57;2.30;78.30
63317;DHT22;49822;41.468;13.560;2023-02-14T04:48:24;2.40;78.90
63317;DHT22;49822;41.468;13.560;2023-02-14T04:50:53;2.50;78.90
63317;DHT22;49822;41.468;13.560;2023-02-14T04:53:21;2.60;77.60
63317;DHT22;49822;41.468;13.560;2023-02-14T04:55:50;2.50;76.70
63317;DHT22;49822;41.468;13.560;2023-02-14T04:58:18;2.00;73.00
63317;DHT22;49822;41.468;13.560;2023-02-14T05:00:46;1.20;77.20
63317;DHT22;49822;41.468;13.560;2023-02-14T05:03:14;1.10;81.20
63317;DHT22;49822;41.468;13.560;2023-02-14T05:05:43;1.40;83.20
63317;DHT22;49822;41.468;13.560;2023-02-14T05:08:10;1.80;83.60
63317;DHT22;49822;41.468;13.560;2023-02-14T05:10:39;2.10;82.80
63317;DHT22;49822;41.468;13.560;2023-02-14T05:13:13;2.20;81.40
63317;DHT22;49822;41.468;13.560;2023-02-14T05:15:44;2.40;80.40
63317;DHT22;49822;41.468;13.560;2023-02-14T05:18:14;2.50;78.70
63317;DHT22;49822;41.468;13.560;2023-02-14T05:20:41;2.50;77.50
63317;DHT22;49822;41.468;13.560;2023-02-14T05:23:09;2.50;76.20
63317;DHT22;49822;41.468;13.560;2023-02-14T05:25:40;2.20;76.30
63317;DHT22;49822;41.468;13.560;2023-02-14T05:28:08;2.10;76.30
63317;DHT22;49822;41.468;13.560;2023-02-14T05:30:39;2.10;76.10
63317;DHT22;49822;41.468;13.560;2023-02-14T05:33:07;2.10;76.80
63317;DHT22;49822;41.468;13.560;2023-02-14T05:35:35;1.80;79.50
63317;DHT22;49822;41.468;13.560;2023-02-14T05:38:03;1.70;81.20
63317;DHT22;49822;41.468;13.560;2023-02-14T05:40:31;1.30;79.00
63317;DHT22;49822;41.468;13.560;2023-02-14T05:43:01;0.70;81.70
63317;DHT22;49822;41.468;13.560;2023-02-14T05:45:28;0.90;84.50
63317;DHT22;49822;41.468;13.560;2023-02-14T05:47:57;1.20;85.60
63317;DHT22;49822;41.468;13.560;2023-02-14T05:50:25;1.50;86.10
63317;DHT22;49822;41.468;13.560;2023-02-14T05:52:53;1.80;85.70
63317;DHT22;49822;41.468;13.560;2023-02-14T05:55:21;2.10;84.60
63317;DHT22;49822;41.468;13.560;2023-02-14T05:57:50;2.10;81.40
63317;DHT22;49822;41.468;13.560;2023-02-14T06:00:19;2.10;81.60
63317;DHT22;49822;41.468;13.560;2023-02-14T06:02:47;2.00;80.80
63317;DHT22;49822;41.468;13.560;2023-02-14T06:05:15;1.70;78.30
63317;DHT22;49822;41.468;13.560;2023-02-14T06:07:44;1.60;80.30
63317;DHT22;49822;41.468;13.560;2023-02-14T06:10:21;1.70;80.20
63317;DHT22;49822;41.468;13.560;2023-02-14T06:12:52;1.80;78.80
63317;DHT22;49822;41.468;13.560;2023-02-14T06:15:21;1.50;79.50
63317;DHT22;49822;41.468;13.560;2023-02-14T06:17:55;1.50;80.80
63317;DHT22;49822;41.468;13.560;2023-02-14T06:20:23;1.70;81.10
63317;DHT22;49822;41.468;13.560;2023-02-14T06:22:51;1.80;80.60
63317;DHT22;49822;41.468;13.560;2023-02-14T06:25:21;1.80;81.10
63317;DHT22;49822;41.468;13.560;2023-02-14T06:27:49;1.40;77.50
63317;DHT22;49822;41.468;13.560;2023-02-14T06:30:17;1.00;79.30
63317;DHT22;49822;41.468;13.560;2023-02-14T06:32:45;1.10;81.70
63317;DHT22;49822;41.468;13.560;2023-02-14T06:35:15;1.40;82.90
63317;DHT22;49822;41.468;13.560;2023-02-14T06:37:42;1.70;82.20
63317;DHT22;49822;41.468;13.560;2023-02-14T06:40:12;2.00;82.00
63317;DHT22;49822;41.468;13.560;2023-02-14T06:42:40;2.30;81.10
63317;DHT22;49822;41.468;13.560;2023-02-14T06:45:09;1.90;78.20
63317;DHT22;49822;41.468;13.560;2023-02-14T06:47:37;1.40;80.70
63317;DHT22;49822;41.468;13.560;2023-02-14T06:50:07;1.70;83.20
63317;DHT22;49822;41.468;13.560;2023-02-14T06:52:38;2.10;84.00
63317;DHT22;49822;41.468;13.560;2023-02-14T06:55:08;2.40;82.30
63317;DHT22;49822;41.468;13.560;2023-02-14T06:57:39;2.60;82.50
63317;DHT22;49822;41.468;13.560;2023-02-14T07:00:08;3.00;81.00
63317;DHT22;49822;41.468;13.560;2023-02-14T07:02:36;2.90;78.70
63317;DHT22;49822;41.468;13.560;2023-02-14T07:05:05;2.90;78.70
63317;DHT22;49822;41.468;13.560;2023-02-14T07:07:35;2.90;76.90
63317;DHT22;49822;41.468;13.560;2023-02-14T07:10:05;3.10;76.70
63317;DHT22;49822;41.468;13.560;2023-02-14T07:12:36;3.10;77.30
63317;DHT22;49822;41.468;13.560;2023-02-14T07:15:08;3.10;78.00
63317;DHT22;49822;41.468;13.560;2023-02-14T07:17:38;3.30;77.90
63317;DHT22;49822;41.468;13.560;2023-02-14T07:20:08;3.20;76.70
63317;DHT22;49822;41.468;13.560;2023-02-14T07:22:38;3.10;76.70
63317;DHT22;49822;41.468;13.560;2023-02-14T07:25:12;3.10;77.50
63317;DHT22;49822;41.468;13.560;2023-02-14T07:27:43;3.00;77.80
63317;DHT22;49822;41.468;13.560;2023-02-14T07:30:13;2.90;77.50
63317;DHT22;49822;41.468;13.560;2023-02-14T07:32:41;2.90;77.80
63317;DHT22;49822;41.468;13.560;2023-02-14T07:35:11;2.90;78.00
63317;DHT22;49822;41.468;13.560;2023-02-14T07:37:42;2.90;78.30
63317;DHT22;49822;41.468;13.560;2023-02-14T07:40:10;3.10;78.00
63317;DHT22;49822;41.468;13.560;2023-02-14T07:42:41;3.40;78.20
63317;DHT22;49822;41.468;13.560;2023-02-14T07:45:10;3.90;77.40
63317;DHT22;49822;41.468;13.560;2023-02-14T07:47:50;4.20;76.40
63317;DHT22;49822;41.468;13.560;2023-02-14T07:50:21;4.40;75.70
63317;DHT22;49822;41.468;13.560;2023-02-14T07:52:49;4.50;75.10
63317;DHT22;49822;41.468;13.560;2023-02-14T07:55:17;4.50;74.80
63317;DHT22;49822;41.468;13.560;2023-02-14T07:57:48;4.70;74.20
63317;DHT22;49822;41.468;13.560;2023-02-14T08:00:16;4.70;74.60
63317;DHT22;49822;41.468;13.560;2023-02-14T08:02:49;4.80;74.30
63317;DHT22;49822;41.468;13.560;2023-02-14T08:05:19;5.00;73.90
63317;DHT22;49822;41.468;13.560;2023-02-14T08:07:46;5.10;73.70
63317;DHT22;49822;41.468;13.560;2023-02-14T08:10:16;5.10;73.80
63317;DHT22;49822;41.468;13.560;2023-02-14T08:12:43;5.30;73.40
63317;DHT22;49822;41.468;13.560;2023-02-14T08:15:31;5.50;71.90
63317;DHT22;49822;41.468;13.560;2023-02-14T08:18:39;5.50;71.30
63317;DHT22;49822;41.468;13.560;2023-02-14T08:21:08;5.60;71.80
63317;DHT22;49822;41.468;13.560;2023-02-14T08:23:37;5.60;71.90
63317;DHT22;49822;41.468;13.560;2023-02-14T08:26:05;5.70;71.90
63317;DHT22;49822;41.468;13.560;2023-02-14T08:28:32;5.90;71.90
63317;DHT22;49822;41.468;13.560;2023-02-14T08:31:02;5.90;70.90
63317;DHT22;49822;41.468;13.560;2023-02-14T08:33:30;6.00;71.00
63317;DHT22;49822;41.468;13.560;2023-02-14T08:35:59;6.10;70.60
63317;DHT22;49822;41.468;13.560;2023-02-14T08:38:30;6.20;69.80
63317;DHT22;49822;41.468;13.560;2023-02-14T08:41:01;6.30;69.40
63317;DHT22;49822;41.468;13.560;2023-02-14T08:43:33;6.50;69.00
63317;DHT22;49822;41.468;13.560;2023-02-14T08:46:00;6.50;69.10
63317;DHT22;49822;41.468;13.560;2023-02-14T08:48:30;6.70;68.80
63317;DHT22;49822;41.468;13.560;2023-02-14T08:50:58;6.80;68.00
63317;DHT22;49822;41.468;13.560;2023-02-14T09:00:50;7.10;68.10
63317;DHT22;49822;41.468;13.560;2023-02-14T09:11:42;7.80;62.30
63317;DHT22;49822;41.468;13.560;2023-02-14T09:14:10;7.80;61.70
63317;DHT22;49822;41.468;13.560;2023-02-14T09:16:38;7.90;62.00
63317;DHT22;49822;41.468;13.560;2023-02-14T09:19:06;8.00;62.50
63317;DHT22;49822;41.468;13.560;2023-02-14T09:21:34;8.20;62.10
63317;DHT22;49822;41.468;13.560;2023-02-14T09:24:02;8.20;61.90
63317;DHT22;49822;41.468;13.560;2023-02-14T09:26:30;8.50;62.00
63317;DHT22;49822;41.468;13.560;2023-02-14T09:28:59;8.60;61.70
63317;DHT22;49822;41.468;13.560;2023-02-14T09:31:26;8.70;61.50
63317;DHT22;49822;41.468;13.560;2023-02-14T09:33:54;8.80;60.50
63317;DHT22;49822;41.468;13.560;2023-02-14T09:36:22;9.10;61.30
63317;DHT22;49822;41.468;13.560;2023-02-14T09:39:08;9.20;61.10
63317;DHT22;49822;41.468;13.560;2023-02-14T09:41:49;9.40;59.90
63317;DHT22;49822;41.468;13.560;2023-02-14T09:44:53;9.60;60.20
63317;DHT22;49822;41.468;13.560;2023-02-14T09:47:34;10.00;59.10
63317;DHT22;49822;41.468;13.560;2023-02-14T09:50:15;10.10;59.20
63317;DHT22;49822;41.468;13.560;2023-02-14T09:52:44;10.10;58.60
63317;DHT22;49822;41.468;13.560;2023-02-14T09:55:15;10.20;58.70
63317;DHT22;49822;41.468;13.560;2023-02-14T10:00:37;10.40;58.20
63317;DHT22;49822;41.468;13.560;2023-02-14T10:03:15;10.60;57.60
63317;DHT22;49822;41.468;13.560;2023-02-14T10:05:58;10.70;56.80
63317;DHT22;49822;41.468;13.560;2023-02-14T10:08:43;10.70;56.80
63317;DHT22;49822;41.468;13.560;2023-02-14T10:11:18;10.80;57.00
63317;DHT22;49822;41.468;13.560;2023-02-14T10:14:03;10.90;56.80
63317;DHT22;49822;41.468;13.560;2023-02-14T10:17:00;11.00;56.90
63317;DHT22;49822;41.468;13.560;2023-02-14T10:20:34;11.20;55.50
63317;DHT22;49822;41.468;13.560;2023-02-14T10:22:45;11.40;54.90
63317;DHT22;49822;41.468;13.560;2023-02-14T10:25:43;11.70;54.20
63317;DHT22;49822;41.468;13.560;2023-02-14T10:28:12;11.90;53.60
63317;DHT22;49822;41.468;13.560;2023-02-14T10:30:53;11.70;54.00
63317;DHT22;49822;41.468;13.560;2023-02-14T10:33:24;11.80;52.90
63317;DHT22;49822;41.468;13.560;2023-02-14T10:36:04;12.20;53.30
63317;DHT22;49822;41.468;13.560;2023-02-14T10:38:49;12.60;51.70
63317;DHT22;49822;41.468;13.560;2023-02-14T10:44:46;13.50;49.70
63317;DHT22;49822;41.468;13.560;2023-02-14T10:55:21;16.20;43.20
63317;DHT22;49822;41.468;13.560;2023-02-14T10:58:02;16.90;41.40
63317;DHT22;49822;41.468;13.560;2023-02-14T11:00:36;17.30;41.60
63317;DHT22;49822;41.468;13.560;2023-02-14T11:03:07;17.50;41.10
63317;DHT22;49822;41.468;13.560;2023-02-14T11:05:40;17.70;39.80
63317;DHT22;49822;41.468;13.560;2023-02-14T11:08:26;18.00;39.00
63317;DHT22;49822;41.468;13.560;2023-02-14T11:11:03;17.30;40.60
63317;DHT22;49822;41.468;13.560;2023-02-14T11:13:36;16.30;41.60
63317;DHT22;49822;41.468;13.560;2023-02-14T11:16:09;16.30;42.50
63317;DHT22;49822;41.468;13.560;2023-02-14T11:18:39;16.70;40.80
63317;DHT22;49822;41.468;13.560;2023-02-14T11:21:13;16.00;41.50
63317;DHT22;49822;41.468;13.560;2023-02-14T11:23:43;15.60;42.90
63317;DHT22;49822;41.468;13.560;2023-02-14T11:28:57;16.00;42.00
63317;DHT22;49822;41.468;13.560;2023-02-14T11:31:34;16.00;41.70
63317;DHT22;49822;41.468;13.560;2023-02-14T11:34:05;16.10;41.50
63317;DHT22;49822;41.468;13.560;2023-02-14T11:36:45;16.10;40.10
63317;DHT22;49822;41.468;13.560;2023-02-14T11:39:30;16.00;40.50
63317;DHT22;49822;41.468;13.560;2023-02-14T11:42:02;16.10;40.40
63317;DHT22;49822;41.468;13.560;2023-02-14T11:44:34;16.00;40.40
63317;DHT22;49822;41.468;13.560;2023-02-14T11:47:35;16.00;40.60
63317;DHT22;49822;41.468;13.560;2023-02-14T11:50:23;16.20;40.00
63317;DHT22;49822;41.468;13.560;2023-02-14T11:52:54;16.20;40.60
63317;DHT22;49822;41.468;13.560;2023-02-14T11:55:31;16.00;39.40
63317;DHT22;49822;41.468;13.560;2023-02-14T11:58:02;15.70;40.90
63317;DHT22;49822;41.468;13.560;2023-02-14T12:00:32;15.40;40.50
63317;DHT22;49822;41.468;13.560;2023-02-14T12:03:05;15.60;40.60
63317;DHT22;49822;41.468;13.560;2023-02-14T12:05:42;15.70;40.00
63317;DHT22;49822;41.468;13.560;2023-02-14T12:08:11;15.80;39.80
63317;DHT22;49822;41.468;13.560;2023-02-14T12:10:40;15.60;40.90
63317;DHT22;49822;41.468;13.560;2023-02-14T12:15:52;15.80;40.10
63317;DHT22;49822;41.468;13.560;2023-02-14T12:18:48;15.70;40.90
63317;DHT22;49822;41.468;13.560;2023-02-14T12:24:36;15.80;41.10
63317;DHT22;49822;41.468;13.560;2023-02-14T12:26:42;16.00;40.10
63317;DHT22;49822;41.468;13.560;2023-02-14T12:31:58;16.10;40.30
63317;DHT22;49822;41.468;13.560;2023-02-14T12:34:26;16.30;40.70
63317;DHT22;49822;41.468;13.560;2023-02-14T12:45:28;17.20;39.30
63317;DHT22;49822;41.468;13.560;2023-02-14T12:56:33;17.80;36.30
63317;DHT22;49822;41.468;13.560;2023-02-14T12:59:22;17.80;35.70
63317;DHT22;49822;41.468;13.560;2023-02-14T13:05:02;17.80;36.60
63317;DHT22;49822;41.468;13.560;2023-02-14T13:10:59;17.80;35.60
63317;DHT22;49822;41.468;13.560;2023-02-14T13:13:34;17.50;35.90
63317;DHT22;49822;41.468;13.560;2023-02-14T13:16:25;17.40;36.30
63317;DHT22;49822;41.468;13.560;2023-02-14T13:21:48;17.50;36.60
63317;DHT22;49822;41.468;13.560;2023-02-14T13:24:25;17.80;35.90
63317;DHT22;49822;41.468;13.560;2023-02-14T13:26:59;18.00;36.30
63317;DHT22;49822;41.468;13.560;2023-02-14T13:29:36;18.10;36.40
63317;DHT22;49822;41.468;13.560;2023-02-14T13:32:10;18.40;35.20
63317;DHT22;49822;41.468;13.560;2023-02-14T13:34:44;18.30;34.90
63317;DHT22;49822;41.468;13.560;2023-02-14T13:37:17;18.40;34.80
63317;DHT22;49822;41.468;13.560;2023-02-14T13:48:27;18.70;34.00
63317;DHT22;49822;41.468;13.560;2023-02-14T13:51:00;18.60;33.60
63317;DHT22;49822;41.468;13.560;2023-02-14T13:58:57;18.80;33.40
63317;DHT22;49822;41.468;13.560;2023-02-14T14:01:30;19.00;32.60
63317;DHT22;49822;41.468;13.560;2023-02-14T14:04:01;18.60;31.90
63317;DHT22;49822;41.468;13.560;2023-02-14T14:06:31;18.60;32.80
63317;DHT22;49822;41.468;13.560;2023-02-14T14:18:29;19.50;32.20
63317;DHT22;49822;41.468;13.560;2023-02-14T14:20:45;19.70;31.80
63317;DHT22;49822;41.468;13.560;2023-02-14T14:23:34;19.60;31.60
63317;DHT22;49822;41.468;13.560;2023-02-14T14:26:36;19.30;32.80
63317;DHT22;49822;41.468;13.560;2023-02-14T14:29:15;19.50;32.10
63317;DHT22;49822;41.468;13.560;2023-02-14T14:31:46;19.70;32.20
63317;DHT22;49822;41.468;13.560;2023-02-14T14:34:18;19.90;32.50
63317;DHT22;49822;41.468;13.560;2023-02-14T14:36:48;20.30;30.10
63317;DHT22;49822;41.468;13.560;2023-02-14T14:39:37;20.10;31.20
63317;DHT22;49822;41.468;13.560;2023-02-14T14:42:13;19.30;30.80
63317;DHT22;49822;41.468;13.560;2023-02-14T14:45:03;18.80;32.20
63317;DHT22;49822;41.468;13.560;2023-02-14T14:47:43;18.50;31.70
63317;DHT22;49822;41.468;13.560;2023-02-14T14:52:56;18.40;32.10
63317;DHT22;49822;41.468;13.560;2023-02-14T14:55:29;18.20;32.40
63317;DHT22;49822;41.468;13.560;2023-02-14T14:58:01;18.20;31.60
63317;DHT22;49822;41.468;13.560;2023-02-14T15:00:37;17.80;30.90
63317;DHT22;49822;41.468;13.560;2023-02-14T15:03:13;17.80;31.70
63317;DHT22;49822;41.468;13.560;2023-02-14T15:05:48;18.60;31.20
63317;DHT22;49822;41.468;13.560;2023-02-14T15:10:52;19.10;30.50
63317;DHT22;49822;41.468;13.560;2023-02-14T15:13:29;19.50;29.80
63317;DHT22;49822;41.468;13.560;2023-02-14T15:18:55;20.40;29.60
63317;DHT22;49822;41.468;13.560;2023-02-14T15:21:24;21.30;30.60
63317;DHT22;49822;41.468;13.560;2023-02-14T15:23:52;21.90;29.90
63317;DHT22;49822;41.468;13.560;2023-02-14T15:26:26;21.50;29.70
63317;DHT22;49822;41.468;13.560;2023-02-14T15:28:59;20.20;31.40
63317;DHT22;49822;41.468;13.560;2023-02-14T15:31:35;20.00;31.30
63317;DHT22;49822;41.468;13.560;2023-02-14T15:34:05;19.10;32.30
63317;DHT22;49822;41.468;13.560;2023-02-14T15:36:33;17.20;35.40
63317;DHT22;49822;41.468;13.560;2023-02-14T15:39:04;16.00;36.90
63317;DHT22;49822;41.468;13.560;2023-02-14T15:41:32;15.20;38.20
63317;DHT22;49822;41.468;13.560;2023-02-14T15:44:00;14.30;41.30
63317;DHT22;49822;41.468;13.560;2023-02-14T15:46:36;13.90;42.60
63317;DHT22;49822;41.468;13.560;2023-02-14T15:49:08;13.60;41.70
63317;DHT22;49822;41.468;13.560;2023-02-14T15:51:37;13.50;41.40
63317;DHT22;49822;41.468;13.560;2023-02-14T15:54:22;13.50;42.00
63317;DHT22;49822;41.468;13.560;2023-02-14T15:56:52;13.10;42.80
63317;DHT22;49822;41.468;13.560;2023-02-14T15:59:22;12.80;43.20
63317;DHT22;49822;41.468;13.560;2023-02-14T16:02:19;12.80;43.20
63317;DHT22;49822;41.468;13.560;2023-02-14T16:04:49;13.00;43.70
63317;DHT22;49822;41.468;13.560;2023-02-14T16:07:27;13.10;44.20
63317;DHT22;49822;41.468;13.560;2023-02-14T16:10:21;12.70;43.60
63317;DHT22;49822;41.468;13.560;2023-02-14T16:13:03;12.70;44.40
63317;DHT22;49822;41.468;13.560;2023-02-14T16:15:36;12.80;44.70
63317;DHT22;49822;41.468;13.560;2023-02-14T16:18:52;12.60;45.70
63317;DHT22;49822;41.468;13.560;2023-02-14T16:26:39;12.70;46.40
63317;DHT22;49822;41.468;13.560;2023-02-14T16:29:17;11.90;46.70
63317;DHT22;49822;41.468;13.560;2023-02-14T16:31:49;11.40;47.20
63317;DHT22;49822;41.468;13.560;2023-02-14T16:34:38;11.30;47.20
63317;DHT22;49822;41.468;13.560;2023-02-14T16:37:17;11.30;48.30
63317;DHT22;49822;41.468;13.560;2023-02-14T16:39:45;10.80;49.00
63317;DHT22;49822;41.468;13.560;2023-02-14T16:42:15;11.10;48.40
63317;DHT22;49822;41.468;13.560;2023-02-14T16:44:44;11.20;48.20
63317;DHT22;49822;41.468;13.560;2023-02-14T16:47:13;11.00;47.60
63317;DHT22;49822;41.468;13.560;2023-02-14T16:49:41;11.10;47.50
63317;DHT22;49822;41.468;13.560;2023-02-14T16:52:16;11.30;48.50
63317;DHT22;49822;41.468;13.560;2023-02-14T16:54:44;11.50;49.20
63317;DHT22;49822;41.468;13.560;2023-02-14T16:59:46;11.90;47.90
63317;DHT22;49822;41.468;13.560;2023-02-14T17:02:13;11.90;48.90
63317;DHT22;49822;41.468;13.560;2023-02-14T17:04:42;12.00;48.50
63317;DHT22;49822;41.468;13.560;2023-02-14T17:07:11;12.00;49.60
63317;DHT22;49822;41.468;13.560;2023-02-14T17:09:45;12.00;49.70
63317;DHT22;49822;41.468;13.560;2023-02-14T17:12:19;12.00;49.90
63317;DHT22;49822;41.468;13.560;2023-02-14T17:14:50;11.90;50.60
63317;DHT22;49822;41.468;13.560;2023-02-14T17:17:20;11.40;54.00
63317;DHT22;49822;41.468;13.560;2023-02-14T17:19:48;11.30;54.40
63317;DHT22;49822;41.468;13.560;2023-02-14T17:22:18;11.30;54.80
63317;DHT22;49822;41.468;13.560;2023-02-14T17:24:47;11.10;55.00
63317;DHT22;49822;41.468;13.560;2023-02-14T17:27:14;11.00;54.80
63317;DHT22;49822;41.468;13.560;2023-02-14T17:29:42;10.70;55.90
63317;DHT22;49822;41.468;13.560;2023-02-14T17:32:13;10.30;57.60
63317;DHT22;49822;41.468;13.560;2023-02-14T17:34:41;10.10;58.50
63317;DHT22;49822;41.468;13.560;2023-02-14T17:37:09;10.20;58.40
63317;DHT22;49822;41.468;13.560;2023-02-14T17:39:37;10.40;58.20
63317;DHT22;49822;41.468;13.560;2023-02-14T17:42:05;10.50;57.60
63317;DHT22;49822;41.468;13.560;2023-02-14T17:44:32;10.70;57.50
63317;DHT22;49822;41.468;13.560;2023-02-14T17:47:05;10.70;57.30
63317;DHT22;49822;41.468;13.560;2023-02-14T17:49:32;10.50;57.00
63317;DHT22;49822;41.468;13.560;2023-02-14T17:52:00;10.20;55.40
63317;DHT22;49822;41.468;13.560;2023-02-14T17:54:27;10.00;58.10
63317;DHT22;49822;41.468;13.560;2023-02-14T17:56:55;9.90;59.10
63317;DHT22;49822;41.468;13.560;2023-02-14T17:59:23;10.00;59.40
63317;DHT22;49822;41.468;13.560;2023-02-14T18:01:51;10.00;59.10
63317;DHT22;49822;41.468;13.560;2023-02-14T18:04:18;10.00;57.60
63317;DHT22;49822;41.468;13.560;2023-02-14T18:06:46;10.00;59.20
63317;DHT22;49822;41.468;13.560;2023-02-14T18:09:13;9.50;61.30
63317;DHT22;49822;41.468;13.560;2023-02-14T18:11:41;9.60;61.70
63317;DHT22;49822;41.468;13.560;2023-02-14T18:14:10;9.60;60.60
63317;DHT22;49822;41.468;13.560;2023-02-14T18:16:39;9.40;61.10
63317;DHT22;49822;41.468;13.560;2023-02-14T18:19:07;9.50;60.40
63317;DHT22;49822;41.468;13.560;2023-02-14T18:21:37;9.70;60.20
63317;DHT22;49822;41.468;13.560;2023-02-14T18:24:07;9.60;59.40
63317;DHT22;49822;41.468;13.560;2023-02-14T18:26:36;9.30;61.90